sensor_id;sensor_type;location;lat;lon;timestamp;pressure;altitude;pressure_sealevel;temperature;humidity
56402;BME280;42299;35.160;26.100;2023-04-07T00:00:32;100930.22;;;13.83;100.00
56402;BME280;42299;35.160;26.100;2023-04-07T00:01:53;100929.28;;;13.80;100.00
56402;BME280;42299;35.160;26.100;2023-04-07T00:03:15;100927.50;;;13.74;100.00
56402;BME280;42299;35.160;26.100;2023-04-07T00:04:37;100925.72;;;13.69;100.00
56402;BME280;42299;35.160;26.100;2023-04-07T00:05:59;100930.97;;;13.63;100.00
56402;BME280;42299;35.160;26.100;2023-04-07T00:07:21;100931.81;;;13.55;100.00
56402;BME280;42299;35.160;26.100;2023-04-07T00:08:44;100927.38;;;13.51;100.00
56402;BME280;42299;35.160;26.100;2023-04-07T00:10:07;100926.47;;;13.48;100.00
56402;BME280;42299;35.160;26.100;2023-04-07T00:11:28;100929.09;;;13.46;100.00
56402;BME280;42299;35.160;26.100;2023-04-07T00:12:51;100927.34;;;13.45;100.00
56402;BME280;42299;35.160;26.100;2023-04-07T00:14:12;100929.97;;;13.42;100.00
56402;BME280;42299;35.160;26.100;2023-04-07T00:15:35;100928.16;;;13.35;100.00
56402;BME280;42299;35.160;26.100;2023-04-07T00:16:56;100933.41;;;13.29;100.00
56402;BME280;42299;35.160;26.100;2023-04-07T00:18:18;100928.09;;;13.28;100.00
56402;BME280;42299;35.160;26.100;2023-04-07T00:19:41;100936.03;;;13.26;100.00
56402;BME280;42299;35.160;26.100;2023-04-07T00:21:03;100936.03;;;13.23;100.00
56402;BME280;42299;35.160;26.100;2023-04-07T00:22:25;100937.75;;;13.21;100.00
56402;BME280;42299;35.160;26.100;2023-04-07T00:23:48;100928.06;;;13.23;100.00
56402;BME280;42299;35.160;26.100;2023-04-07T00:25:12;100937.81;;;13.26;100.00
56402;BME280;42299;35.160;26.100;2023-04-07T00:26:33;100937.81;;;13.29;100.00
56402;BME280;42299;35.160;26.100;2023-04-07T00:27:56;100938.72;;;13.29;100.00
56402;BME280;42299;35.160;26.100;2023-04-07T00:29:17;100939.56;;;13.25;100.00
56402;BME280;42299;35.160;26.100;2023-04-07T00:30:39;100940.41;;;13.21;100.00
56402;BME280;42299;35.160;26.100;2023-04-07T00:32:00;100938.63;;;13.17;100.00
56402;BME280;42299;35.160;26.100;2023-04-07T00:33:23;100944.84;;;13.19;100.00
56402;BME280;42299;35.160;26.100;2023-04-07T00:34:45;100941.28;;;13.20;100.00
56402;BME280;42299;35.160;26.100;2023-04-07T00:36:07;100940.31;;;13.12;100.00
56402;BME280;42299;35.160;26.100;2023-04-07T00:37:29;100937.63;;;13.07;100.00
56402;BME280;42299;35.160;26.100;2023-04-07T00:38:52;100935.91;;;13.11;100.00
56402;BME280;42299;35.160;26.100;2023-04-07T00:40:16;100941.25;;;13.14;100.00
56402;BME280;42299;35.160;26.100;2023-04-07T00:41:37;100940.34;;;13.13;100.00
56402;BME280;42299;35.160;26.100;2023-04-07T00:43:00;100930.59;;;13.11;100.00
56402;BME280;42299;35.160;26.100;2023-04-07T00:44:21;100940.31;;;13.12;100.00
56402;BME280;42299;35.160;26.100;2023-04-07T00:45:44;100935.94;;;13.14;100.00
56402;BME280;42299;35.160;26.100;2023-04-07T00:47:05;100935.09;;;13.16;100.00
56402;BME280;42299;35.160;26.100;2023-04-07T00:48:27;100932.44;;;13.20;100.00
56402;BME280;42299;35.160;26.100;2023-04-07T00:49:50;100934.22;;;13.19;100.00
56402;BME280;42299;35.160;26.100;2023-04-07T00:51:13;100934.22;;;13.19;100.00
56402;BME280;42299;35.160;26.100;2023-04-07T00:52:37;100929.81;;;13.21;100.00
56402;BME280;42299;35.160;26.100;2023-04-07T00:54:00;100934.25;;;13.24;100.00
56402;BME280;42299;35.160;26.100;2023-04-07T00:55:23;100926.31;;;13.24;100.00
56402;BME280;42299;35.160;26.100;2023-04-07T00:56:45;100928.97;;;13.24;100.00
56402;BME280;42299;35.160;26.100;2023-04-07T00:58:08;100922.78;;;13.26;100.00
56402;BME280;42299;35.160;26.100;2023-04-07T00:59:32;100923.66;;;13.25;100.00
56402;BME280;42299;35.160;26.100;2023-04-07T01:01:00;100925.41;;;13.26;100.00
56402;BME280;42299;35.160;26.100;2023-04-07T01:02:31;100923.66;;;13.25;100.00
56402;BME280;42299;35.160;26.100;2023-04-07T01:04:00;100913.06;;;13.25;100.00
56402;BME280;42299;35.160;26.100;2023-04-07T01:05:27;100914.81;;;13.23;100.00
56402;BME280;42299;35.160;26.100;2023-04-07T01:06:55;100916.53;;;13.20;100.00
56402;BME280;42299;35.160;26.100;2023-04-07T01:08:29;100912.03;;;13.11;100.00
56402;BME280;42299;35.160;26.100;2023-04-07T01:10:02;100914.63;;;13.03;100.00
56402;BME280;42299;35.160;26.100;2023-04-07T01:11:35;100917.25;;;12.99;100.00
56402;BME280;42299;35.160;26.100;2023-04-07T01:13:03;100917.22;;;12.96;100.00
56402;BME280;42299;35.160;26.100;2023-04-07T01:14:29;100919.84;;;12.93;100.00
56402;BME280;42299;35.160;26.100;2023-04-07T01:16:15;100908.31;;;12.89;100.00
56402;BME280;42299;35.160;26.100;2023-04-07T01:17:44;100915.34;;;12.84;100.00
56402;BME280;42299;35.160;26.100;2023-04-07T01:19:13;100918.84;;;12.82;100.00
56402;BME280;42299;35.160;26.100;2023-04-07T01:20:42;100916.97;;;12.70;100.00
56402;BME280;42299;35.160;26.100;2023-04-07T01:22:11;100920.41;;;12.61;100.00
56402;BME280;42299;35.160;26.100;2023-04-07T01:23:51;100916.88;;;12.58;100.00
56402;BME280;42299;35.160;26.100;2023-04-07T01:25:30;100922.97;;;12.51;100.00
56402;BME280;42299;35.160;26.100;2023-04-07T01:26:59;100918.47;;;12.42;100.00
56402;BME280;42299;35.160;26.100;2023-04-07T01:28:43;100914.06;;;12.44;100.00
56402;BME280;42299;35.160;26.100;2023-04-07T01:30:14;100922.03;;;12.46;100.00
56402;BME280;42299;35.160;26.100;2023-04-07T01:31:39;100919.34;;;12.43;100.00
56402;BME280;42299;35.160;26.100;2023-04-07T01:33:03;100914.00;;;12.38;100.00
56402;BME280;42299;35.160;26.100;2023-04-07T01:34:29;100914.00;;;12.38;100.00
56402;BME280;42299;35.160;26.100;2023-04-07T01:35:53;100917.56;;;12.38;100.00
56402;BME280;42299;35.160;26.100;2023-04-07T01:37:16;100917.53;;;12.37;100.00
56402;BME280;42299;35.160;26.100;2023-04-07T01:38:39;100906.91;;;12.34;100.00
56402;BME280;42299;35.160;26.100;2023-04-07T01:40:01;100907.78;;;12.33;100.00
56402;BME280;42299;35.160;26.100;2023-04-07T01:41:25;100906.00;;;12.30;100.00
56402;BME280;42299;35.160;26.100;2023-04-07T01:42:47;100910.38;;;12.30;100.00
56402;BME280;42299;35.160;26.100;2023-04-07T01:44:11;100913.03;;;12.27;100.00
56402;BME280;42299;35.160;26.100;2023-04-07T01:45:37;100905.06;;;12.25;100.00
56402;BME280;42299;35.160;26.100;2023-04-07T01:47:00;100911.19;;;12.23;100.00
56402;BME280;42299;35.160;26.100;2023-04-07T01:48:23;100923.50;;;12.21;100.00
56402;BME280;42299;35.160;26.100;2023-04-07T01:49:46;100925.25;;;12.17;100.00
56402;BME280;42299;35.160;26.100;2023-04-07T01:51:10;100921.66;;;12.12;100.00
56402;BME280;42299;35.160;26.100;2023-04-07T01:52:37;100924.03;;;11.88;100.00
56402;BME280;42299;35.160;26.100;2023-04-07T01:54:01;100923.69;;;11.67;100.00
56402;BME280;42299;35.160;26.100;2023-04-07T01:55:24;100921.81;;;11.58;100.00
56402;BME280;42299;35.160;26.100;2023-04-07T01:56:56;100929.78;;;11.63;100.00
56402;BME280;42299;35.160;26.100;2023-04-07T01:58:19;100929.97;;;11.73;100.00
56402;BME280;42299;35.160;26.100;2023-04-07T01:59:42;100930.88;;;11.75;100.00
56402;BME280;42299;35.160;26.100;2023-04-07T02:01:06;100928.19;;;11.72;100.00
56402;BME280;42299;35.160;26.100;2023-04-07T02:02:29;100930.78;;;11.71;100.00
56402;BME280;42299;35.160;26.100;2023-04-07T02:03:54;100929.13;;;11.74;100.00
56402;BME280;42299;35.160;26.100;2023-04-07T02:05:19;100933.59;;;11.78;100.00
56402;BME280;42299;35.160;26.100;2023-04-07T02:06:45;100937.13;;;11.82;100.00
56402;BME280;42299;35.160;26.100;2023-04-07T02:08:12;100941.56;;;11.81;100.00
56402;BME280;42299;35.160;26.100;2023-04-07T02:09:39;100935.38;;;11.82;100.00
56402;BME280;42299;35.160;26.100;2023-04-07T02:11:03;100937.13;;;11.79;100.00
56402;BME280;42299;35.160;26.100;2023-04-07T02:12:30;100927.41;;;11.78;100.00
56402;BME280;42299;35.160;26.100;2023-04-07T02:14:06;100936.22;;;11.78;100.00
56402;BME280;42299;35.160;26.100;2023-04-07T02:15:43;100937.06;;;11.74;100.00
56402;BME280;42299;35.160;26.100;2023-04-07T02:17:09;100932.59;;;11.73;100.00
56402;BME280;42299;35.160;26.100;2023-04-07T02:18:32;100933.47;;;11.72;100.00
56402;BME280;42299;35.160;26.100;2023-04-07T02:19:55;100931.66;;;11.68;100.00
56402;BME280;42299;35.160;26.100;2023-04-07T02:21:20;100934.25;;;11.65;100.00
56402;BME280;42299;35.160;26.100;2023-04-07T02:22:42;100938.66;;;11.66;100.00
56402;BME280;42299;35.160;26.100;2023-04-07T02:24:06;100941.31;;;11.66;100.00
56402;BME280;42299;35.160;26.100;2023-04-07T02:25:29;100939.56;;;11.67;100.00
56402;BME280;42299;35.160;26.100;2023-04-07T02:26:52;100939.41;;;11.57;100.00
56402;BME280;42299;35.160;26.100;2023-04-07T02:28:14;100934.88;;;11.47;100.00
56402;BME280;42299;35.160;26.100;2023-04-07T02:29:39;100933.03;;;11.43;100.00
56402;BME280;42299;35.160;26.100;2023-04-07T02:31:02;100935.66;;;11.40;100.00
56402;BME280;42299;35.160;26.100;2023-04-07T02:32:24;100939.19;;;11.41;100.00
56402;BME280;42299;35.160;26.100;2023-04-07T02:33:47;100936.50;;;11.39;100.00
56402;BME280;42299;35.160;26.100;2023-04-07T02:35:09;100940.81;;;11.33;100.00
56402;BME280;42299;35.160;26.100;2023-04-07T02:36:31;100934.59;;;11.29;100.00
56402;BME280;42299;35.160;26.100;2023-04-07T02:37:53;100935.44;;;11.27;100.00
56402;BME280;42299;35.160;26.100;2023-04-07T02:39:15;100937.19;;;11.26;100.00
56402;BME280;42299;35.160;26.100;2023-04-07T02:40:38;100934.56;;;11.26;100.00
56402;BME280;42299;35.160;26.100;2023-04-07T02:42:00;100940.69;;;11.25;100.00
56402;BME280;42299;35.160;26.100;2023-04-07T02:43:23;100941.59;;;11.26;100.00
56402;BME280;42299;35.160;26.100;2023-04-07T02:44:45;100938.97;;;11.27;100.00
56402;BME280;42299;35.160;26.100;2023-04-07T02:46:07;100943.31;;;11.24;100.00
56402;BME280;42299;35.160;26.100;2023-04-07T02:47:32;100937.03;;;11.17;100.00
56402;BME280;42299;35.160;26.100;2023-04-07T02:48:54;100937.91;;;11.14;100.00
56402;BME280;42299;35.160;26.100;2023-04-07T02:50:16;100940.50;;;11.13;100.00
56402;BME280;42299;35.160;26.100;2023-04-07T02:51:37;100945.78;;;11.13;100.00
56402;BME280;42299;35.160;26.100;2023-04-07T02:53:00;100945.81;;;11.14;100.00
56402;BME280;42299;35.160;26.100;2023-04-07T02:54:23;100943.19;;;11.14;100.00
56402;BME280;42299;35.160;26.100;2023-04-07T02:55:46;100950.22;;;11.14;100.00
56402;BME280;42299;35.160;26.100;2023-04-07T02:57:07;100951.03;;;11.11;100.00
56402;BME280;42299;35.160;26.100;2023-04-07T02:58:30;100943.13;;;11.11;100.00
56402;BME280;42299;35.160;26.100;2023-04-07T02:59:52;100947.53;;;11.12;100.00
56402;BME280;42299;35.160;26.100;2023-04-07T03:01:17;100943.97;;;11.10;100.00
56402;BME280;42299;35.160;26.100;2023-04-07T03:02:41;100949.13;;;11.03;100.00
56402;BME280;42299;35.160;26.100;2023-04-07T03:04:02;100953.31;;;10.90;100.00
56402;BME280;42299;35.160;26.100;2023-04-07T03:05:24;100947.03;;;10.84;100.00
56402;BME280;42299;35.160;26.100;2023-04-07T03:06:46;100951.47;;;10.85;100.00
56402;BME280;42299;35.160;26.100;2023-04-07T03:08:10;100959.34;;;10.82;100.00
56402;BME280;42299;35.160;26.100;2023-04-07T03:09:31;100954.84;;;10.76;100.00
56402;BME280;42299;35.160;26.100;2023-04-07T03:10:54;100956.69;;;10.80;100.00
56402;BME280;42299;35.160;26.100;2023-04-07T03:12:21;100959.31;;;10.80;100.00
56402;BME280;42299;35.160;26.100;2023-04-07T03:13:43;100951.44;;;10.82;100.00
56402;BME280;42299;35.160;26.100;2023-04-07T03:15:06;100951.47;;;10.85;100.00
56402;BME280;42299;35.160;26.100;2023-04-07T03:16:30;100950.63;;;10.87;100.00
56402;BME280;42299;35.160;26.100;2023-04-07T03:18:12;100948.81;;;10.85;100.00
56402;BME280;42299;35.160;26.100;2023-04-07T03:19:35;100951.44;;;10.82;100.00
56402;BME280;42299;35.160;26.100;2023-04-07T03:20:58;100955.81;;;10.81;100.00
56402;BME280;42299;35.160;26.100;2023-04-07T03:22:20;100948.81;;;10.85;100.00
56402;BME280;42299;35.160;26.100;2023-04-07T03:23:45;100954.22;;;10.89;100.00
56402;BME280;42299;35.160;26.100;2023-04-07T03:25:08;100949.84;;;10.93;100.00
56402;BME280;42299;35.160;26.100;2023-04-07T03:26:30;100948.03;;;10.90;100.00
56402;BME280;42299;35.160;26.100;2023-04-07T03:27:53;100955.06;;;10.88;100.00
56402;BME280;42299;35.160;26.100;2023-04-07T03:29:15;100948.81;;;10.85;100.00
56402;BME280;42299;35.160;26.100;2023-04-07T03:30:37;100949.69;;;10.84;100.00
56402;BME280;42299;35.160;26.100;2023-04-07T03:32:01;100952.31;;;10.82;100.00
56402;BME280;42299;35.160;26.100;2023-04-07T03:33:23;100954.00;;;10.78;100.00
56402;BME280;42299;35.160;26.100;2023-04-07T03:34:47;100953.09;;;10.78;100.00
56402;BME280;42299;35.160;26.100;2023-04-07T03:36:10;100948.75;;;10.80;100.00
56402;BME280;42299;35.160;26.100;2023-04-07T03:37:34;100953.22;;;10.83;100.00
56402;BME280;42299;35.160;26.100;2023-04-07T03:38:58;100950.56;;;10.84;100.00
56402;BME280;42299;35.160;26.100;2023-04-07T03:40:19;100945.25;;;10.81;100.00
56402;BME280;42299;35.160;26.100;2023-04-07T03:41:42;100947.00;;;10.81;100.00
56402;BME280;42299;35.160;26.100;2023-04-07T03:43:03;100950.53;;;10.81;100.00
56402;BME280;42299;35.160;26.100;2023-04-07T03:44:26;100953.25;;;10.86;100.00
56402;BME280;42299;35.160;26.100;2023-04-07T03:45:47;100949.78;;;10.90;100.00
56402;BME280;42299;35.160;26.100;2023-04-07T03:47:11;100956.91;;;10.94;100.00
56402;BME280;42299;35.160;26.100;2023-04-07T03:48:36;100964.88;;;10.95;100.00
56402;BME280;42299;35.160;26.100;2023-04-07T03:50:03;100962.13;;;10.91;100.00
56402;BME280;42299;35.160;26.100;2023-04-07T03:51:32;100960.25;;;10.82;100.00
56402;BME280;42299;35.160;26.100;2023-04-07T03:52:55;100957.53;;;10.79;100.00
56402;BME280;42299;35.160;26.100;2023-04-07T03:54:20;100957.50;;;10.76;100.00
56402;BME280;42299;35.160;26.100;2023-04-07T03:55:43;100967.13;;;10.74;100.00
56402;BME280;42299;35.160;26.100;2023-04-07T03:57:13;100966.25;;;10.73;100.00
56402;BME280;42299;35.160;26.100;2023-04-07T03:58:40;100969.75;;;10.72;100.00
56402;BME280;42299;35.160;26.100;2023-04-07T04:00:08;100968.88;;;10.73;100.00
56402;BME280;42299;35.160;26.100;2023-04-07T04:01:54;100966.16;;;10.69;100.00
56402;BME280;42299;35.160;26.100;2023-04-07T04:03:16;100968.78;;;10.67;100.00
56402;BME280;42299;35.160;26.100;2023-04-07T04:04:49;100966.09;;;10.66;100.00
56402;BME280;42299;35.160;26.100;2023-04-07T04:06:12;100966.09;;;10.66;100.00
56402;BME280;42299;35.160;26.100;2023-04-07T04:07:34;100967.91;;;10.70;100.00
56402;BME280;42299;35.160;26.100;2023-04-07T04:08:59;100974.16;;;10.73;100.00
56402;BME280;42299;35.160;26.100;2023-04-07T04:10:20;100981.22;;;10.74;100.00
56402;BME280;42299;35.160;26.100;2023-04-07T04:11:46;100973.34;;;10.76;100.00
56402;BME280;42299;35.160;26.100;2023-04-07T04:13:08;100987.47;;;10.79;100.00
56402;BME280;42299;35.160;26.100;2023-04-07T04:14:32;100983.13;;;10.82;100.00
56402;BME280;42299;35.160;26.100;2023-04-07T04:15:55;100989.22;;;10.79;100.00
56402;BME280;42299;35.160;26.100;2023-04-07T04:17:17;100988.41;;;10.83;100.00
56402;BME280;42299;35.160;26.100;2023-04-07T04:18:41;100989.41;;;10.90;100.00
56402;BME280;42299;35.160;26.100;2023-04-07T04:20:08;100996.50;;;10.92;100.00
56402;BME280;42299;35.160;26.100;2023-04-07T04:21:40;100997.06;;;10.74;100.00
56402;BME280;42299;35.160;26.100;2023-04-07T04:23:03;100992.47;;;10.64;100.00
56402;BME280;42299;35.160;26.100;2023-04-07T04:24:26;100999.28;;;10.53;100.00
56402;BME280;42299;35.160;26.100;2023-04-07T04:25:53;101003.69;;;10.53;100.00
56402;BME280;42299;35.160;26.100;2023-04-07T04:27:14;100999.28;;;10.53;100.00
56402;BME280;42299;35.160;26.100;2023-04-07T04:28:39;100999.38;;;10.56;100.00
56402;BME280;42299;35.160;26.100;2023-04-07T04:30:03;101002.16;;;10.65;100.00
56402;BME280;42299;35.160;26.100;2023-04-07T04:31:43;101001.47;;;10.74;100.00
56402;BME280;42299;35.160;26.100;2023-04-07T04:33:05;101002.44;;;10.79;100.00
56402;BME280;42299;35.160;26.100;2023-04-07T04:34:47;101001.59;;;10.83;100.00
56402;BME280;42299;35.160;26.100;2023-04-07T04:36:11;101003.50;;;10.89;100.00
56402;BME280;42299;35.160;26.100;2023-04-07T04:37:34;101007.97;;;10.93;100.00
56402;BME280;42299;35.160;26.100;2023-04-07T04:38:59;101008.88;;;10.95;100.00
56402;BME280;42299;35.160;26.100;2023-04-07T04:40:25;101011.53;;;10.96;100.00
56402;BME280;42299;35.160;26.100;2023-04-07T04:41:47;101019.44;;;10.96;100.00
56402;BME280;42299;35.160;26.100;2023-04-07T04:43:10;101009.81;;;10.98;100.00
56402;BME280;42299;35.160;26.100;2023-04-07T04:44:34;101016.94;;;11.04;100.00
56402;BME280;42299;35.160;26.100;2023-04-07T04:45:58;101024.09;;;11.08;100.00
56402;BME280;42299;35.160;26.100;2023-04-07T04:47:22;101023.22;;;11.09;100.00
56402;BME280;42299;35.160;26.100;2023-04-07T04:48:45;101028.41;;;11.04;100.00
56402;BME280;42299;35.160;26.100;2023-04-07T04:50:08;101031.06;;;11.04;100.00
56402;BME280;42299;35.160;26.100;2023-04-07T04:51:33;101030.19;;;11.05;100.00
56402;BME280;42299;35.160;26.100;2023-04-07T04:53:03;101034.66;;;11.09;100.00
56402;BME280;42299;35.160;26.100;2023-04-07T04:54:26;101035.69;;;11.17;100.00
56402;BME280;42299;35.160;26.100;2023-04-07T04:55:49;101043.78;;;11.27;100.00
56402;BME280;42299;35.160;26.100;2023-04-07T04:57:17;101043.97;;;11.37;100.00
56402;BME280;42299;35.160;26.100;2023-04-07T04:58:39;101053.00;;;11.51;100.00
56402;BME280;42299;35.160;26.100;2023-04-07T05:00:09;101055.94;;;11.70;100.00
56402;BME280;42299;35.160;26.100;2023-04-07T05:01:35;101054.50;;;11.88;100.00
56402;BME280;42299;35.160;26.100;2023-04-07T05:03:01;101054.81;;;12.10;100.00
56402;BME280;42299;35.160;26.100;2023-04-07T05:04:27;101054.22;;;12.30;100.00
56402;BME280;42299;35.160;26.100;2023-04-07T05:05:56;101055.28;;;12.45;100.00
56402;BME280;42299;35.160;26.100;2023-04-07T05:07:19;101053.66;;;12.56;100.00
56402;BME280;42299;35.160;26.100;2023-04-07T05:08:41;101053.81;;;12.66;100.00
56402;BME280;42299;35.160;26.100;2023-04-07T05:10:05;101047.75;;;12.81;100.00
56402;BME280;42299;35.160;26.100;2023-04-07T05:11:31;101052.25;;;12.88;100.00
56402;BME280;42299;35.160;26.100;2023-04-07T05:12:53;101052.34;;;12.93;100.00
56402;BME280;42299;35.160;26.100;2023-04-07T05:14:15;101051.44;;;12.94;100.00
56402;BME280;42299;35.160;26.100;2023-04-07T05:15:47;101046.88;;;12.81;100.00
56402;BME280;42299;35.160;26.100;2023-04-07T05:17:10;101048.59;;;12.75;100.00
56402;BME280;42299;35.160;26.100;2023-04-07T05:18:33;101051.25;;;12.75;100.00
56402;BME280;42299;35.160;26.100;2023-04-07T05:19:56;101047.75;;;12.78;100.00
56402;BME280;42299;35.160;26.100;2023-04-07T05:21:28;101046.09;;;12.86;100.00
56402;BME280;42299;35.160;26.100;2023-04-07T05:22:55;101046.16;;;12.92;100.00
56402;BME280;42299;35.160;26.100;2023-04-07T05:24:23;101042.59;;;12.92;100.00
56402;BME280;42299;35.160;26.100;2023-04-07T05:25:49;101039.94;;;12.90;100.00
56402;BME280;42299;35.160;26.100;2023-04-07T05:27:12;101043.47;;;12.94;100.00
56402;BME280;42299;35.160;26.100;2023-04-07T05:28:36;101054.09;;;12.94;100.00
56402;BME280;42299;35.160;26.100;2023-04-07T05:30:05;101042.53;;;12.87;100.00
56402;BME280;42299;35.160;26.100;2023-04-07T05:31:29;101048.84;;;12.97;100.00
56402;BME280;42299;35.160;26.100;2023-04-07T05:32:53;101050.81;;;13.16;100.00
56402;BME280;42299;35.160;26.100;2023-04-07T05:34:36;101049.34;;;13.45;100.00
56402;BME280;42299;35.160;26.100;2023-04-07T05:35:59;101058.41;;;13.72;100.00
56402;BME280;42299;35.160;26.100;2023-04-07T05:37:22;101054.13;;;13.96;100.00
56402;BME280;42299;35.160;26.100;2023-04-07T05:38:46;101052.47;;;14.14;100.00
56402;BME280;42299;35.160;26.100;2023-04-07T05:40:12;101055.19;;;14.26;100.00
56402;BME280;42299;35.160;26.100;2023-04-07T05:41:35;101048.22;;;14.42;100.00
56402;BME280;42299;35.160;26.100;2023-04-07T05:42:57;101042.09;;;14.59;100.00
56402;BME280;42299;35.160;26.100;2023-04-07T05:44:23;101052.78;;;14.74;100.00
56402;BME280;42299;35.160;26.100;2023-04-07T05:45:46;101044.81;;;14.79;100.00
56402;BME280;42299;35.160;26.100;2023-04-07T05:47:09;101045.72;;;14.81;100.00
56402;BME280;42299;35.160;26.100;2023-04-07T05:48:31;101050.13;;;14.85;100.00
56402;BME280;42299;35.160;26.100;2023-04-07T05:49:54;101052.78;;;14.84;100.00
56402;BME280;42299;35.160;26.100;2023-04-07T05:51:17;101057.19;;;14.79;100.00
56402;BME280;42299;35.160;26.100;2023-04-07T05:52:39;101049.22;;;14.69;100.00
56402;BME280;42299;35.160;26.100;2023-04-07T05:54:14;101059.81;;;14.56;100.00
56402;BME280;42299;35.160;26.100;2023-04-07T05:55:36;101058.84;;;14.42;100.00
56402;BME280;42299;35.160;26.100;2023-04-07T05:57:01;101056.97;;;14.31;100.00
56402;BME280;42299;35.160;26.100;2023-04-07T05:58:26;101056.94;;;14.25;100.00
56402;BME280;42299;35.160;26.100;2023-04-07T05:59:50;101060.44;;;14.18;100.00
56402;BME280;42299;35.160;26.100;2023-04-07T06:01:12;101059.53;;;14.13;100.00
56402;BME280;42299;35.160;26.100;2023-04-07T06:02:34;101056.00;;;14.10;100.00
56402;BME280;42299;35.160;26.100;2023-04-07T06:03:56;101066.66;;;14.20;100.00
56402;BME280;42299;35.160;26.100;2023-04-07T06:05:20;101064.13;;;14.39;100.00
56402;BME280;42299;35.160;26.100;2023-04-07T06:06:46;101068.63;;;14.53;100.00
56402;BME280;42299;35.160;26.100;2023-04-07T06:08:08;101063.38;;;14.62;100.00
56402;BME280;42299;35.160;26.100;2023-04-07T06:09:32;101058.13;;;14.85;100.00
56402;BME280;42299;35.160;26.100;2023-04-07T06:10:54;101061.72;;;15.11;100.00
56402;BME280;42299;35.160;26.100;2023-04-07T06:12:17;101055.53;;;15.37;100.00
56402;BME280;42299;35.160;26.100;2023-04-07T06:13:40;101062.69;;;15.53;100.00
56402;BME280;42299;35.160;26.100;2023-04-07T06:15:03;101065.34;;;15.64;100.00
56402;BME280;42299;35.160;26.100;2023-04-07T06:16:25;101056.47;;;15.80;100.00
56402;BME280;42299;35.160;26.100;2023-04-07T06:17:48;101066.22;;;15.94;100.00
56402;BME280;42299;35.160;26.100;2023-04-07T06:19:11;101055.53;;;16.13;100.00
56402;BME280;42299;35.160;26.100;2023-04-07T06:20:33;101057.28;;;16.15;100.00
56402;BME280;42299;35.160;26.100;2023-04-07T06:21:55;101053.78;;;16.00;100.00
56402;BME280;42299;35.160;26.100;2023-04-07T06:23:18;101057.34;;;15.85;100.00
56402;BME280;42299;35.160;26.100;2023-04-07T06:24:42;101060.00;;;15.86;100.00
56402;BME280;42299;35.160;26.100;2023-04-07T06:26:04;101059.09;;;16.03;100.00
56402;BME280;42299;35.160;26.100;2023-04-07T06:27:26;101059.06;;;16.18;100.00
56402;BME280;42299;35.160;26.100;2023-04-07T06:28:49;101061.66;;;16.39;100.00
56402;BME280;42299;35.160;26.100;2023-04-07T06:30:13;101055.38;;;16.58;100.00
56402;BME280;42299;35.160;26.100;2023-04-07T06:31:36;101054.38;;;16.81;100.00
56402;BME280;42299;35.160;26.100;2023-04-07T06:32:58;101058.75;;;16.97;100.00
56402;BME280;42299;35.160;26.100;2023-04-07T06:34:21;101057.78;;;17.07;100.00
56402;BME280;42299;35.160;26.100;2023-04-07T06:35:43;101051.53;;;17.17;100.00
56402;BME280;42299;35.160;26.100;2023-04-07T06:37:04;101063.03;;;17.22;100.00
56402;BME280;42299;35.160;26.100;2023-04-07T06:38:28;101055.97;;;17.17;100.00
56402;BME280;42299;35.160;26.100;2023-04-07T06:39:52;101063.88;;;17.30;100.00
56402;BME280;42299;35.160;26.100;2023-04-07T06:41:15;101064.69;;;17.44;100.00
56402;BME280;42299;35.160;26.100;2023-04-07T06:42:37;101061.03;;;17.54;100.00
56402;BME280;42299;35.160;26.100;2023-04-07T06:44:21;101070.84;;;17.48;100.00
56402;BME280;42299;35.160;26.100;2023-04-07T06:45:43;101063.00;;;17.28;100.00
56402;BME280;42299;35.160;26.100;2023-04-07T06:47:05;101063.97;;;17.15;100.00
56402;BME280;42299;35.160;26.100;2023-04-07T06:48:28;101064.03;;;17.12;100.00
56402;BME280;42299;35.160;26.100;2023-04-07T06:49:51;101075.50;;;17.20;100.00
56402;BME280;42299;35.160;26.100;2023-04-07T06:51:13;101067.44;;;17.32;100.00
56402;BME280;42299;35.160;26.100;2023-04-07T06:52:35;101066.50;;;17.36;100.00
56402;BME280;42299;35.160;26.100;2023-04-07T06:53:57;101066.59;;;17.24;100.00
56402;BME280;42299;35.160;26.100;2023-04-07T06:55:21;101071.16;;;17.01;100.00
56402;BME280;42299;35.160;26.100;2023-04-07T06:56:44;101076.56;;;16.90;100.00
56402;BME280;42299;35.160;26.100;2023-04-07T06:58:06;101073.00;;;16.97;100.00
56402;BME280;42299;35.160;26.100;2023-04-07T06:59:28;101080.88;;;17.14;100.00
56402;BME280;42299;35.160;26.100;2023-04-07T07:00:50;101071.03;;;17.25;100.00
56402;BME280;42299;35.160;26.100;2023-04-07T07:02:12;101073.66;;;17.30;100.00
56402;BME280;42299;35.160;26.100;2023-04-07T07:03:35;101082.59;;;17.24;100.00
56402;BME280;42299;35.160;26.100;2023-04-07T07:04:57;101083.59;;;17.11;100.00
56402;BME280;42299;35.160;26.100;2023-04-07T07:06:20;101083.59;;;17.08;100.00
56402;BME280;42299;35.160;26.100;2023-04-07T07:07:42;101083.59;;;17.11;100.00
56402;BME280;42299;35.160;26.100;2023-04-07T07:09:04;101076.34;;;17.27;100.00
56402;BME280;42299;35.160;26.100;2023-04-07T07:10:28;101083.25;;;17.57;100.00